createdAt,value
2023-05-12T00:02:10.135Z,4.37
2023-05-12T00:04:47.644Z,4.45
2023-05-12T00:07:23.807Z,4.70
2023-05-12T00:10:05.262Z,4.05
2023-05-12T00:12:44.453Z,4.30
2023-05-12T00:15:23.295Z,5.25
2023-05-12T00:18:01.032Z,4.90
2023-05-12T00:20:38.359Z,5.00
2023-05-12T00:23:20.953Z,4.60
2023-05-12T00:26:02.910Z,5.15
2023-05-12T00:28:36.733Z,4.35
2023-05-12T00:31:21.632Z,4.55
2023-05-12T00:33:57.745Z,4.35
2023-05-12T00:36:36.834Z,4.43
2023-05-12T00:39:13.798Z,4.90
2023-05-12T00:41:50.877Z,4.15
2023-05-12T00:44:29.385Z,4.37
2023-05-12T00:47:09.977Z,4.53
2023-05-12T00:49:48.550Z,4.32
2023-05-12T00:52:24.088Z,4.77
2023-05-12T00:55:01.374Z,4.18
2023-05-12T00:57:42.643Z,4.85
2023-05-12T01:00:22.555Z,4.78
2023-05-12T01:03:02.608Z,4.65
2023-05-12T01:05:42.700Z,4.25
2023-05-12T01:08:21.677Z,4.60
2023-05-12T01:10:57.945Z,4.40
2023-05-12T01:13:33.142Z,5.38
2023-05-12T01:16:12.927Z,4.35
2023-05-12T01:18:53.880Z,4.72
2023-05-12T01:21:29.979Z,3.95
2023-05-12T01:24:11.750Z,3.95
2023-05-12T01:26:52.094Z,4.30
2023-05-12T01:29:25.945Z,4.10
2023-05-12T01:32:06.711Z,4.50
2023-05-12T01:34:44.553Z,4.07
2023-05-12T01:37:22.368Z,3.90
2023-05-12T01:39:58.315Z,4.25
2023-05-12T01:42:38.842Z,3.85
2023-05-12T01:45:15.363Z,4.28
2023-05-12T01:47:51.799Z,3.95
2023-05-12T01:50:26.287Z,4.55
2023-05-12T01:53:07.830Z,4.00
2023-05-12T01:55:47.576Z,3.88
2023-05-12T01:58:32.317Z,4.05
2023-05-12T02:01:08.625Z,4.47
2023-05-12T02:03:47.648Z,3.73
2023-05-12T02:06:31.716Z,5.35
2023-05-12T02:09:05.316Z,4.25
2023-05-12T02:11:41.175Z,4.22
2023-05-12T02:17:00.395Z,4.22
2023-05-12T02:19:38.121Z,4.40
2023-05-12T02:22:15.947Z,4.47
2023-05-12T02:24:52.805Z,4.05
2023-05-12T02:27:28.734Z,4.40
2023-05-12T02:30:07.239Z,5.32
2023-05-12T02:32:45.280Z,4.57
2023-05-12T02:35:22.221Z,4.25
2023-05-12T02:38:01.595Z,4.70
2023-05-12T02:40:36.036Z,4.10
2023-05-12T02:43:12.025Z,4.43
2023-05-12T02:48:30.318Z,4.45
2023-05-12T02:51:06.221Z,4.35
2023-05-12T02:53:42.920Z,4.22
2023-05-12T02:56:19.338Z,4.10
2023-05-12T02:58:56.022Z,3.50
2023-05-12T03:01:32.504Z,4.30
2023-05-12T03:04:11.633Z,4.47
2023-05-12T03:06:48.704Z,4.63
2023-05-12T03:09:27.653Z,4.35
2023-05-12T03:12:03.427Z,4.28
2023-05-12T03:14:39.591Z,4.55
2023-05-12T03:17:17.718Z,4.13
2023-05-12T03:19:58.228Z,4.45
2023-05-12T03:22:35.866Z,4.45
2023-05-12T03:25:09.665Z,5.10
2023-05-12T03:27:46.667Z,4.45
2023-05-12T03:30:23.648Z,4.57
2023-05-12T03:33:04.962Z,4.30
2023-05-12T03:35:40.134Z,5.10
2023-05-12T03:38:23.093Z,4.45
2023-05-12T03:41:08.898Z,4.45
2023-05-12T03:43:45.194Z,4.70
2023-05-12T03:48:59.658Z,4.80
2023-05-12T03:51:34.522Z,4.30
2023-05-12T03:56:54.763Z,4.45
2023-05-12T03:59:29.872Z,4.88
2023-05-12T04:02:08.081Z,4.30
2023-05-12T04:04:43.364Z,4.50
2023-05-12T04:07:18.385Z,4.50
2023-05-12T04:09:57.583Z,5.30
2023-05-12T04:12:33.234Z,4.17
2023-05-12T04:15:11.449Z,4.63
2023-05-12T04:17:47.472Z,4.15
2023-05-12T04:23:00.762Z,5.00
2023-05-12T04:25:43.189Z,4.75
2023-05-12T04:28:27.529Z,4.75
2023-05-12T04:31:07.053Z,4.40
2023-05-12T04:33:46.486Z,4.78
2023-05-12T04:36:26.258Z,4.38
2023-05-12T04:39:05.665Z,4.80
2023-05-12T04:41:45.326Z,4.47
2023-05-12T04:44:22.644Z,4.80
2023-05-12T04:47:00.499Z,4.68
2023-05-12T04:49:36.609Z,4.30
2023-05-12T04:54:56.532Z,4.68
2023-05-12T04:57:38.804Z,5.10
2023-05-12T05:00:17.670Z,4.95
2023-05-12T05:03:00.250Z,4.70
2023-05-12T05:05:36.500Z,5.05
2023-05-12T05:08:12.462Z,4.30
2023-05-12T05:10:48.469Z,4.85
2023-05-12T05:13:31.733Z,4.75
2023-05-12T05:16:12.410Z,5.80
2023-05-12T05:18:49.836Z,5.00
2023-05-12T05:24:02.396Z,5.15
2023-05-12T05:26:40.056Z,5.13
2023-05-12T05:29:15.303Z,4.68
2023-05-12T05:31:56.834Z,4.22
2023-05-12T05:34:35.479Z,4.95
2023-05-12T05:37:13.386Z,7.68
2023-05-12T05:39:52.362Z,4.60
2023-05-12T05:42:30.358Z,4.40
2023-05-12T05:45:07.976Z,4.85
2023-05-12T05:47:53.087Z,4.25
2023-05-12T05:50:30.508Z,3.63
2023-05-12T05:53:09.122Z,4.50
2023-05-12T05:55:52.360Z,5.03
2023-05-12T05:58:30.655Z,5.07
2023-05-12T06:01:10.156Z,4.22
2023-05-12T06:03:49.530Z,4.68
2023-05-12T06:06:28.332Z,4.20
2023-05-12T06:09:05.746Z,3.53
2023-05-12T06:11:44.404Z,3.85
2023-05-12T06:14:22.577Z,4.07
2023-05-12T06:16:59.667Z,4.20
2023-05-12T06:19:41.242Z,4.40
2023-05-12T06:22:17.159Z,4.50
2023-05-12T06:24:54.747Z,4.17
2023-05-12T06:27:33.075Z,3.70
2023-05-12T06:30:15.861Z,3.90
2023-05-12T06:32:53.032Z,4.00
2023-05-12T06:35:32.051Z,4.40
2023-05-12T06:38:09.926Z,3.90
2023-05-12T06:40:46.413Z,4.05
2023-05-12T06:43:23.787Z,4.20
2023-05-12T06:46:07.858Z,4.22
2023-05-12T06:48:44.870Z,3.78
2023-05-12T06:51:23.790Z,4.18
2023-05-12T06:54:02.236Z,3.50
2023-05-12T06:56:40.400Z,3.90
2023-05-12T06:59:19.751Z,3.90
2023-05-12T07:02:05.766Z,3.97
2023-05-12T07:04:44.179Z,3.80
2023-05-12T07:07:25.050Z,3.85
2023-05-12T07:12:43.566Z,3.70
2023-05-12T07:15:22.073Z,3.97
2023-05-12T07:18:00.156Z,3.50
2023-05-12T07:21:08.179Z,3.60
2023-05-12T07:23:56.225Z,3.80
2023-05-12T07:26:42.742Z,3.90
2023-05-12T07:29:25.907Z,3.45
2023-05-12T07:32:03.672Z,4.10
2023-05-12T07:37:54.015Z,3.90
2023-05-12T07:43:42.629Z,3.45
2023-05-12T07:49:01.992Z,3.50
2023-05-12T07:51:55.151Z,3.75
2023-05-12T08:44:06.786Z,3.35
2023-05-12T08:46:46.738Z,3.15
2023-05-12T08:49:26.473Z,2.63
2023-05-12T08:52:07.627Z,2.60
2023-05-12T08:54:55.035Z,2.92
2023-05-12T08:57:38.198Z,2.92
2023-05-12T09:00:27.091Z,3.20
2023-05-12T09:03:07.688Z,3.63
2023-05-12T09:05:47.888Z,3.25
2023-05-12T09:08:26.344Z,2.97
2023-05-12T09:11:03.901Z,3.15
2023-05-12T09:13:48.191Z,2.72
2023-05-12T09:16:28.965Z,2.58
2023-05-12T09:19:06.824Z,2.67
2023-05-12T09:21:47.927Z,2.97
2023-05-12T09:24:37.804Z,2.77
2023-05-12T09:27:14.046Z,3.20
2023-05-12T09:29:59.214Z,2.38
2023-05-12T09:32:35.993Z,2.63
2023-05-12T09:35:17.122Z,2.67
2023-05-12T09:37:55.521Z,2.22
2023-05-12T09:40:32.533Z,2.10
2023-05-12T09:43:14.353Z,2.70
2023-05-12T09:45:51.657Z,2.85
2023-05-12T09:48:31.890Z,1.92
2023-05-12T09:51:06.461Z,2.40
2023-05-12T09:53:48.953Z,2.42
2023-05-12T09:56:26.178Z,2.40
2023-05-12T09:59:07.039Z,2.20
2023-05-12T10:01:43.873Z,1.63
2023-05-12T10:04:28.738Z,2.15
2023-05-12T10:07:05.217Z,1.75
2023-05-12T10:09:51.188Z,2.23
2023-05-12T11:25:01.195Z,1.83
2023-05-12T11:27:51.082Z,1.70
2023-05-12T11:49:35.792Z,2.13
2023-05-12T12:04:22.338Z,1.55
2023-05-12T12:13:18.104Z,1.77
2023-05-12T13:13:06.022Z,1.10
2023-05-12T13:19:04.450Z,1.30
2023-05-12T13:21:51.768Z,0.93
2023-05-12T13:24:30.354Z,1.00
2023-05-12T13:27:08.912Z,1.20
2023-05-12T13:29:47.690Z,1.23
2023-05-12T13:32:30.542Z,1.30
2023-05-12T13:35:06.328Z,1.30
2023-05-12T13:40:30.754Z,1.40
2023-05-12T13:43:09.894Z,1.47
2023-05-12T13:45:46.468Z,1.50
2023-05-12T13:48:25.298Z,1.03
2023-05-12T13:51:01.026Z,1.50
2023-05-12T13:53:44.092Z,2.80
2023-05-12T13:56:27.747Z,1.35
2023-05-12T13:59:04.136Z,1.30
2023-05-12T14:01:44.372Z,1.00
2023-05-12T14:04:20.148Z,1.15
2023-05-12T14:09:44.770Z,0.80
2023-05-12T14:12:24.728Z,1.25
2023-05-12T14:15:11.155Z,1.25
2023-05-12T14:18:00.596Z,1.27
2023-05-12T14:20:37.489Z,1.00
2023-05-12T14:23:12.934Z,1.42
2023-05-12T14:25:54.147Z,1.10
2023-05-12T14:28:32.706Z,1.33
2023-05-12T14:31:09.597Z,1.17
2023-05-12T14:33:45.420Z,1.50
2023-05-12T14:36:21.604Z,1.30
2023-05-12T14:38:56.938Z,1.40
2023-05-12T14:41:37.632Z,1.10
2023-05-12T14:44:14.750Z,1.20
2023-05-12T14:46:53.223Z,1.45
2023-05-12T14:49:28.723Z,1.20
2023-05-12T14:52:12.422Z,1.75
2023-05-12T14:54:48.360Z,1.20
2023-05-12T14:57:27.940Z,1.38
2023-05-12T15:00:08.454Z,1.27
2023-05-12T15:02:49.713Z,1.30
2023-05-12T15:11:48.498Z,1.23
2023-05-12T15:14:33.211Z,1.25
2023-05-12T15:17:12.006Z,1.40
2023-05-12T15:19:47.614Z,1.33
2023-05-12T15:22:24.532Z,1.40
2023-05-12T15:25:05.949Z,1.60
2023-05-12T15:27:48.596Z,1.45
2023-05-12T15:30:33.218Z,1.67
2023-05-12T15:33:21.112Z,1.30
2023-05-12T15:35:59.884Z,1.52
2023-05-12T15:38:50.486Z,1.55
2023-05-12T15:41:35.787Z,1.02
2023-05-12T15:44:12.526Z,2.00
2023-05-12T15:46:57.324Z,1.60
2023-05-12T15:49:33.188Z,1.93
2023-05-12T15:52:11.843Z,1.10
2023-05-12T15:54:47.750Z,1.23
2023-05-12T16:00:33.499Z,2.08
2023-05-12T16:06:09.896Z,1.83
2023-05-12T16:08:53.598Z,1.52
2023-05-12T16:11:31.842Z,2.03
2023-05-12T16:14:10.811Z,1.45
2023-05-12T16:16:49.095Z,1.80
2023-05-12T16:19:33.935Z,1.50
2023-05-12T16:22:18.489Z,1.60
2023-05-12T16:24:55.391Z,1.83
2023-05-12T16:45:53.775Z,1.60
2023-05-12T16:48:45.088Z,1.60
2023-05-12T16:51:39.460Z,1.60
2023-05-12T16:54:18.422Z,1.75
2023-05-12T16:56:56.973Z,1.40
2023-05-12T16:59:38.965Z,1.63
2023-05-12T17:02:19.063Z,1.95
2023-05-12T17:04:58.072Z,1.52
2023-05-12T17:07:37.954Z,2.10
2023-05-12T17:10:15.250Z,2.15
2023-05-12T17:12:53.424Z,1.93
2023-05-12T17:15:30.104Z,2.13
2023-05-12T17:18:13.054Z,1.50
2023-05-12T17:20:54.820Z,1.90
2023-05-12T17:23:37.211Z,2.07
2023-05-12T17:26:17.219Z,1.90
2023-05-12T17:28:56.182Z,1.70
2023-05-12T17:31:39.119Z,1.33
2023-05-12T17:34:20.695Z,1.80
2023-05-12T17:40:08.328Z,1.70
2023-05-12T17:42:48.167Z,1.73
2023-05-12T17:45:30.725Z,1.88
2023-05-12T17:48:15.846Z,1.67
2023-05-12T17:57:42.323Z,2.50
2023-05-12T18:03:38.490Z,2.08
2023-05-12T18:06:17.446Z,2.05
2023-05-12T18:08:55.746Z,1.90
2023-05-12T18:11:32.666Z,1.95
2023-05-12T18:14:09.625Z,1.80
2023-05-12T18:16:58.802Z,1.50
2023-05-12T18:19:38.712Z,2.07
2023-05-12T18:22:15.418Z,1.65
2023-05-12T18:24:51.569Z,1.90
2023-05-12T18:27:28.623Z,1.80
2023-05-12T18:30:07.764Z,1.70
2023-05-12T18:32:44.701Z,2.10
2023-05-12T18:35:29.220Z,3.30
2023-05-12T18:38:09.121Z,2.53
2023-05-12T18:40:44.407Z,2.10
2023-05-12T18:43:19.199Z,1.95
2023-05-12T18:45:54.679Z,2.15
2023-05-12T18:48:30.659Z,1.80
2023-05-12T18:51:08.482Z,2.47
2023-05-12T18:53:43.237Z,2.20
2023-05-12T18:56:18.718Z,1.95
2023-05-12T18:58:54.382Z,2.10
2023-05-12T19:01:29.726Z,2.10
2023-05-12T19:04:05.439Z,2.20
2023-05-12T19:06:43.071Z,2.58
2023-05-12T19:09:18.489Z,3.15
2023-05-12T19:11:53.827Z,2.45
2023-05-12T19:14:31.404Z,2.35
2023-05-12T19:17:06.768Z,2.40
2023-05-12T19:19:40.619Z,2.50
2023-05-12T19:22:18.693Z,2.45
2023-05-12T19:24:56.454Z,2.28
2023-05-12T19:27:31.084Z,2.33
2023-05-12T19:30:06.253Z,2.67
2023-05-12T19:32:42.863Z,2.35
2023-05-12T19:35:18.514Z,2.10
2023-05-12T19:37:56.487Z,2.20
2023-05-12T19:40:31.357Z,2.50
2023-05-12T19:43:10.795Z,2.05
2023-05-12T19:45:46.498Z,2.70
2023-05-12T19:48:24.223Z,2.17
2023-05-12T19:50:58.932Z,2.50
2023-05-12T19:53:38.792Z,2.83
2023-05-12T19:56:15.090Z,2.38
2023-05-12T19:58:53.208Z,2.70
2023-05-12T20:01:30.503Z,2.55
2023-05-12T20:04:07.187Z,2.33
2023-05-12T20:06:42.736Z,2.70
2023-05-12T20:09:25.257Z,2.63
2023-05-12T20:12:00.115Z,2.60
2023-05-12T20:14:39.086Z,2.30
2023-05-12T20:17:16.895Z,2.72
2023-05-12T20:19:52.465Z,2.70
2023-05-12T20:22:27.658Z,3.83
2023-05-12T20:25:06.740Z,2.50
2023-05-12T20:27:42.637Z,3.33
2023-05-12T20:30:19.201Z,2.40
2023-05-12T20:32:56.111Z,3.00
2023-05-12T20:35:31.352Z,2.40
2023-05-12T20:38:06.557Z,2.85
2023-05-12T20:40:45.328Z,2.88
2023-05-12T20:43:22.045Z,3.65
2023-05-12T20:46:01.352Z,3.33
2023-05-12T20:48:39.333Z,2.77
2023-05-12T20:51:17.713Z,3.00
2023-05-12T20:53:57.154Z,2.95
2023-05-12T20:56:39.488Z,2.78
2023-05-12T20:59:19.232Z,2.90
2023-05-12T21:01:55.828Z,3.38
2023-05-12T21:04:33.446Z,2.92
2023-05-12T21:07:11.305Z,2.72
2023-05-12T21:09:51.568Z,2.73
2023-05-12T21:12:38.828Z,3.30
2023-05-12T21:15:20.197Z,2.70
2023-05-12T21:17:57.375Z,3.60
2023-05-12T21:20:36.349Z,2.90
2023-05-12T21:23:14.697Z,3.10
2023-05-12T21:25:49.875Z,3.40
2023-05-12T21:28:30.734Z,4.03
2023-05-12T21:31:08.470Z,2.95
2023-05-12T21:33:45.079Z,3.33
2023-05-12T21:36:23.826Z,2.95
2023-05-12T21:39:00.488Z,3.25
2023-05-12T21:41:39.804Z,3.45
2023-05-12T21:44:18.343Z,3.47
2023-05-12T21:46:54.844Z,4.25
2023-05-12T21:49:30.579Z,3.60
2023-05-12T21:52:09.184Z,3.35
2023-05-12T21:54:47.495Z,3.92
2023-05-12T21:57:24.201Z,3.42
2023-05-12T22:00:06.271Z,3.53
2023-05-12T22:02:51.060Z,3.17
2023-05-12T22:05:28.558Z,3.70
2023-05-12T22:08:04.820Z,3.07
2023-05-12T22:10:44.016Z,3.80
2023-05-12T22:13:22.171Z,3.05
2023-05-12T22:16:03.062Z,2.85
2023-05-12T22:18:46.870Z,4.03
2023-05-12T22:21:26.312Z,3.88
2023-05-12T22:24:03.469Z,4.00
2023-05-12T22:26:41.090Z,3.80
2023-05-12T22:29:21.501Z,3.83
2023-05-12T22:32:05.342Z,4.20
2023-05-12T22:34:42.646Z,4.05
2023-05-12T22:37:17.328Z,4.37
2023-05-12T22:39:55.209Z,4.13
2023-05-12T22:42:31.116Z,4.05
2023-05-12T22:45:10.023Z,4.40
2023-05-12T22:47:51.355Z,4.10
2023-05-12T22:50:27.135Z,4.70
2023-05-12T22:53:04.208Z,4.25
2023-05-12T22:55:39.737Z,4.10
2023-05-12T22:58:16.399Z,4.40
2023-05-12T23:00:55.490Z,4.68
2023-05-12T23:03:36.478Z,4.80
2023-05-12T23:06:17.680Z,3.97
2023-05-12T23:08:56.527Z,4.57
2023-05-12T23:11:32.146Z,4.63
2023-05-12T23:14:18.215Z,4.40
2023-05-12T23:16:53.665Z,4.35
2023-05-12T23:19:33.319Z,5.03
2023-05-12T23:22:10.467Z,4.55
2023-05-12T23:24:45.801Z,4.40
2023-05-12T23:27:25.464Z,4.72
2023-05-12T23:30:01.536Z,4.70
2023-05-12T23:32:39.479Z,5.63
2023-05-12T23:35:25.321Z,5.20
2023-05-12T23:38:03.827Z,4.78
2023-05-12T23:40:41.022Z,4.75
2023-05-12T23:43:17.563Z,4.77
2023-05-12T23:45:56.942Z,4.50
2023-05-12T23:48:33.037Z,4.57
2023-05-12T23:51:12.420Z,4.47
2023-05-12T23:53:51.962Z,5.53
2023-05-12T23:56:28.780Z,5.07
2023-05-12T23:59:05.974Z,4.25
